Guide — WDE7328 — position and weather

sailwx.info

Track history (hours):
 
Tides and Currents Weather Stations Pressure Air Temp Water Temp Dewpoint Dewpoint Depression Visibility Wind Speed Wind Dir Waves Ship Positions

Guide

Owner: Crowley Marine Services, SEATTLE, WA. More information available from US FCC via Universal Licensing System and Coast Guard Vessel Documentation Center.

Last reported at 2017-Apr-27 16:30 UTC. Time now 2017-Apr-27 16:42 UTC.
Position N 47°22' W 122°23'.

Length 34 m; draft 5.1 m.

Type: Tug. MMSI: 366759530.

Date/timePositionNaut miles runAvg speedWind from/ knotsBaromVisibWave heightAir tempDewpointWater temp
2017-Apr-27 16:30N 47°22' W 122°23'4 8.7
2017-Apr-27 16:00N 47°27' W 122°25'5 9.7
2017-Apr-27 15:30N 47°31' W 122°26'5 9.8
2017-Apr-27 15:01N 47°36' W 122°28'1010.0
2017-Apr-27 14:00N 47°46' W 122°27'510.2
2017-Apr-27 13:30N 47°51' W 122°29'5 9.5
2017-Apr-27 13:01N 47°56' W 122°31'1210.0
2017-Apr-27 11:51N 48°05' W 122°40'711.0
2017-Apr-27 11:13N 48°11' W 122°47'510.6
2017-Apr-27 10:47N 48°15' W 122°49'510.3
2017-Apr-27 10:19N 48°20' W 122°47'410.0
2017-Apr-27 09:57N 48°23' W 122°45'4 9.8
2017-Apr-27 09:30N 48°28' W 122°45'5 9.7
2017-Apr-27 09:00N 48°32' W 122°45'510.1
2017-Apr-27 08:31N 48°37' W 122°45'5 9.7
2017-Apr-27 08:00N 48°42' W 122°45'8 3.3
2017-Apr-27 05:25N 48°51' W 122°45'0 0.1
2017-Apr-27 03:28N 48°51' W 122°45'511.9
2017-Apr-27 03:00N 48°45' W 122°44'612.1
2017-Apr-27 02:30N 48°39' W 122°43'612.7
2017-Apr-27 02:00N 48°33' W 122°45'612.9
2017-Apr-27 01:30N 48°27' W 122°46'610.9
2017-Apr-27 01:00N 48°22' W 122°51'611.2
2017-Apr-27 00:30N 48°19' W 122°58'611.1
2017-Apr-27 00:00N 48°16' W 123°05'611.3
2017-Apr-26 23:30N 48°14' W 123°13'611.6
2017-Apr-26 23:01N 48°10' W 123°20'5 9.9
2017-Apr-26 22:30N 48°08' W 123°26'0 0.8
2017-Apr-26 22:00N 48°08' W 123°27'2 4.4
2017-Apr-26 21:30N 48°08' W 123°23'4 8.6
2017-Apr-26 21:00N 48°10' W 123°18'5 9.1
2017-Apr-26 20:30N 48°12' W 123°11'5 9.2
2017-Apr-26 19:59N 48°13' W 123°05'510.2
2017-Apr-26 19:29N 48°12' W 122°57'710.9
2017-Apr-26 18:48N 48°11' W 122°46'710.9
2017-Apr-26 18:10N 48°06' W 122°39'213.2
2017-Apr-26 18:00N 48°04' W 122°38'712.8
2017-Apr-26 17:30N 47°58' W 122°34'611.4
2017-Apr-26 17:00N 47°54' W 122°29'511.0
2017-Apr-26 16:30N 47°48' W 122°26'511.0
2017-Apr-26 16:00N 47°43' W 122°26'611.2
2017-Apr-26 15:30N 47°37' W 122°27'611.3
2017-Apr-26 15:00N 47°32' W 122°25'1010.3
2017-Apr-26 14:00N 47°21' W 122°23'4 8.8
2017-Apr-26 13:30N 47°17' W 122°26'1 2.2
2017-Apr-26 13:00N 47°17' W 122°25'1 2.4
2017-Apr-26 12:30N 47°17' W 122°26'1 0.8
2017-Apr-26 11:55N 47°18' W 122°26'0 0.0
2017-Apr-26 11:30N 47°18' W 122°26'0 0.0
2017-Apr-26 10:57N 47°18' W 122°26'0 0.0
2017-Apr-26 10:24N 47°18' W 122°26'0 0.0
2017-Apr-26 10:00N 47°18' W 122°26'1 1.5
2017-Apr-26 09:31N 47°18' W 122°27'3 6.4
2017-Apr-26 09:00N 47°21' W 122°25'4 7.2
2017-Apr-26 08:31N 47°24' W 122°22'4 7.7
2017-Apr-26 08:00N 47°27' W 122°25'4 7.7
2017-Apr-26 07:30N 47°31' W 122°26'4 8.0
2017-Apr-26 07:00N 47°35' W 122°28'4 7.5
2017-Apr-26 06:30N 47°39' W 122°28'4 7.3
2017-Apr-26 06:00N 47°42' W 122°28'4 7.3
2017-Apr-26 05:30N 47°46' W 122°27'4 7.5
2017-Apr-26 05:00N 47°50' W 122°28'4 7.3
2017-Apr-26 04:30N 47°53' W 122°29'3 6.3
2017-Apr-26 04:00N 47°56' W 122°32'4 5.7
2017-Apr-26 03:19N 47°58' W 122°36'13 5.9
2017-Apr-26 01:05N 48°10' W 122°46'1 6.9
2017-Apr-26 00:57N 48°10' W 122°47'4 7.7
2017-Apr-26 00:30N 48°11' W 122°52'4 8.1
2017-Apr-26 00:00N 48°11' W 122°58'5 9.3
2017-Apr-25 23:30N 48°12' W 123°05'5 9.9
2017-Apr-25 23:00N 48°11' W 123°12'5 9.7
2017-Apr-25 22:30N 48°09' W 123°19'4 8.7
2017-Apr-25 22:01N 48°08' W 123°25'1 1.4
2017-Apr-25 21:31N 48°08' W 123°26'2 3.3
2017-Apr-25 21:00N 48°08' W 123°24'3 6.2
2017-Apr-25 20:30N 48°09' W 123°20'3 5.2
2017-Apr-25 20:00N 48°10' W 123°16'4 7.5
2017-Apr-25 19:30N 48°11' W 123°11'4 7.3
2017-Apr-25 19:00N 48°13' W 123°06'4 7.8
2017-Apr-25 18:30N 48°12' W 123°00'4 8.6
2017-Apr-25 18:00N 48°12' W 122°54'5 9.5
2017-Apr-25 17:29N 48°11' W 122°47'810.4
2017-Apr-25 16:42N 48°05' W 122°38'211.4
2017-Apr-25 16:30N 48°03' W 122°38'510.7
2017-Apr-25 16:00N 47°58' W 122°34'611.1
2017-Apr-25 15:31N 47°54' W 122°29'611.6
2017-Apr-25 15:00N 47°48' W 122°26'1111.4
2017-Apr-25 14:00N 47°37' W 122°27'611.1
2017-Apr-25 13:30N 47°32' W 122°25'510.8
2017-Apr-25 13:00N 47°26' W 122°23'5 9.1
2017-Apr-25 12:30N 47°22' W 122°23'510.1
2017-Apr-25 12:00N 47°18' W 122°27'2 4.8
2017-Apr-25 11:30N 47°15' W 122°26'0 0.0
2017-Apr-25 11:00N 47°15' W 122°26'0 0.0
2017-Apr-25 09:53N 47°15' W 122°26'0 0.0
2017-Apr-25 09:30N 47°15' W 122°26'0 0.0
2017-Apr-25 09:00N 47°15' W 122°26'0 0.0
2017-Apr-25 08:30N 47°15' W 122°26'0 0.0
2017-Apr-25 07:55N 47°15' W 122°26'0 0.0
2017-Apr-25 07:30N 47°15' W 122°26'0 0.0
2017-Apr-25 07:00N 47°15' W 122°26'0 0.0
2017-Apr-25 06:30N 47°15' W 122°26'0 0.0
2017-Apr-25 06:00N 47°15' W 122°26'0 0.0
2017-Apr-25 05:30N 47°15' W 122°26'0 0.0
2017-Apr-25 05:00N 47°15' W 122°26'0 0.0
2017-Apr-25 04:30N 47°15' W 122°26'0 0.0
2017-Apr-25 04:00N 47°15' W 122°26'0 0.0
2017-Apr-25 03:30N 47°15' W 122°26'0 0.0
2017-Apr-25 03:00N 47°15' W 122°26'0 0.0
2017-Apr-25 02:30N 47°15' W 122°26'0 0.0
2017-Apr-25 02:00N 47°15' W 122°26'0 0.0
2017-Apr-25 01:30N 47°15' W 122°26'2 3.2
2017-Apr-25 01:00N 47°17' W 122°24'2 3.3
2017-Apr-25 00:30N 47°15' W 122°23'0 0.6
2017-Apr-25 00:00N 47°16' W 122°23'1 3.0
2017-Apr-24 23:30N 47°17' W 122°25'2 3.1
2017-Apr-24 23:00N 47°15' W 122°26'0 0.0
2017-Apr-24 22:30N 47°15' W 122°26'0 0.0
2017-Apr-24 22:00N 47°15' W 122°26'0 0.0
2017-Apr-24 21:30N 47°15' W 122°26'0 0.0
2017-Apr-24 21:00N 47°15' W 122°26'0 0.0
2017-Apr-24 20:30N 47°15' W 122°26'0 0.0
2017-Apr-24 20:00N 47°15' W 122°26'0 0.0
2017-Apr-24 19:30N 47°15' W 122°26'0 0.0
2017-Apr-24 18:57N 47°15' W 122°26'0 0.0
2017-Apr-24 18:30N 47°15' W 122°26'0 0.0
2017-Apr-24 18:00N 47°15' W 122°26'0 0.0
2017-Apr-24 17:30N 47°15' W 122°26'0 0.0
2017-Apr-24 17:00N 47°15' W 122°26'0 0.0
2017-Apr-24 16:30N 47°15' W 122°26'0 0.0
2017-Apr-24 16:00N 47°15' W 122°26'0 0.0
2017-Apr-24 15:30N 47°15' W 122°26'0 0.0
2017-Apr-24 14:59N 47°15' W 122°26'0 0.0
2017-Apr-24 14:21N 47°15' W 122°26'0 0.0
2017-Apr-24 13:30N 47°15' W 122°26'0 0.0
2017-Apr-24 13:00N 47°15' W 122°26'0 0.0
2017-Apr-24 11:44N 47°15' W 122°26'0 0.0
2017-Apr-24 11:30N 47°15' W 122°26'0 0.0
2017-Apr-24 11:00N 47°15' W 122°26'0 0.0
2017-Apr-24 10:26N 47°15' W 122°26'0 0.0
2017-Apr-24 10:00N 47°15' W 122°26'0 0.0
2017-Apr-24 09:30N 47°15' W 122°26'0 0.0
2017-Apr-24 09:00N 47°15' W 122°26'0 0.0
2017-Apr-24 08:29N 47°15' W 122°26'0 0.0
2017-Apr-24 07:59N 47°15' W 122°26'0 0.0
2017-Apr-24 07:28N 47°15' W 122°26'0 0.0
2017-Apr-24 07:00N 47°15' W 122°26'0 0.0
2017-Apr-24 06:30N 47°15' W 122°26'0 0.0
2017-Apr-24 06:00N 47°15' W 122°26'0 0.0
2017-Apr-24 05:30N 47°15' W 122°26'0 0.0
2017-Apr-24 05:00N 47°15' W 122°26'0 0.0
2017-Apr-24 04:30N 47°15' W 122°26'0 0.0
2017-Apr-24 04:00N 47°15' W 122°26'0 0.0
2017-Apr-24 03:28N 47°15' W 122°26'2 3.6
2017-Apr-24 03:00N 47°17' W 122°26'1 2.7
2017-Apr-24 02:30N 47°16' W 122°24'1 1.7
2017-Apr-24 02:00N 47°16' W 122°23'0 0.1
2017-Apr-24 01:30N 47°16' W 122°23'1 2.7
2017-Apr-24 00:58N 47°17' W 122°25'1 3.1
2017-Apr-24 00:30N 47°18' W 122°26'1 2.6
2017-Apr-24 00:00N 47°16' W 122°26'1 2.2
2017-Apr-23 23:30N 47°15' W 122°26'0 0.0
2017-Apr-23 23:00N 47°15' W 122°26'0 0.0
2017-Apr-23 22:30N 47°15' W 122°26'0 0.0
2017-Apr-23 22:00N 47°15' W 122°26'0 0.0
2017-Apr-23 21:30N 47°15' W 122°26'0 0.0
2017-Apr-23 21:00N 47°15' W 122°26'0 0.0
2017-Apr-23 20:30N 47°15' W 122°26'0 0.0
2017-Apr-23 19:57N 47°15' W 122°26'0 0.0
2017-Apr-23 19:30N 47°15' W 122°26'0 0.0
2017-Apr-23 18:55N 47°15' W 122°26'0 0.0
2017-Apr-23 18:30N 47°15' W 122°26'0 0.0
2017-Apr-23 18:00N 47°15' W 122°26'0 0.0
2017-Apr-23 17:30N 47°15' W 122°26'0 0.0
2017-Apr-23 17:00N 47°15' W 122°26'2 3.1
2017-Apr-23 16:29N 47°17' W 122°25'3 0.4
2017-Apr-23 08:41N 47°19' W 122°27'6 7.0
2017-Apr-23 07:52N 47°23' W 122°22'2 6.6
2017-Apr-23 07:30N 47°25' W 122°24'4 7.8
2017-Apr-23 07:00N 47°29' W 122°26'4 7.9
2017-Apr-23 06:30N 47°33' W 122°27'3 7.0
2017-Apr-23 06:00N 47°36' W 122°24'2 4.9
2017-Apr-23 05:30N 47°35' W 122°21'0 0.0
2017-Apr-23 04:59N 47°35' W 122°21'0 0.0
2017-Apr-23 04:28N 47°35' W 122°21'0 0.0
2017-Apr-23 04:00N 47°35' W 122°21'0 0.0
2017-Apr-23 03:29N 47°35' W 122°21'0 0.0
2017-Apr-23 03:00N 47°35' W 122°21'0 0.0
2017-Apr-23 02:27N 47°35' W 122°21'0 0.0
2017-Apr-23 02:00N 47°35' W 122°21'0 0.0
2017-Apr-23 01:24N 47°35' W 122°21'0 0.0
2017-Apr-23 01:00N 47°35' W 122°21'0 0.4
2017-Apr-23 00:30N 47°35' W 122°21'0 0.0
2017-Apr-23 00:00N 47°35' W 122°21'0 0.7
2017-Apr-22 23:31N 47°35' W 122°21'1 1.4
2017-Apr-22 23:00N 47°36' W 122°21'1 2.2
2017-Apr-22 22:30N 47°37' W 122°21'1 2.6
2017-Apr-22 22:00N 47°36' W 122°23'3 6.8
2017-Apr-22 21:30N 47°33' W 122°25'510.4
2017-Apr-22 21:00N 47°28' W 122°24'5 9.8
2017-Apr-22 20:30N 47°23' W 122°21'5 9.3
2017-Apr-22 20:01N 47°20' W 122°26'4 8.7
2017-Apr-22 19:29N 47°15' W 122°26'0 0.3
2017-Apr-22 19:00N 47°15' W 122°26'0 0.0
2017-Apr-22 18:29N 47°15' W 122°26'0 0.0
2017-Apr-22 18:00N 47°15' W 122°26'0 0.0
2017-Apr-22 17:30N 47°15' W 122°26'0 0.0
2017-Apr-22 17:00N 47°15' W 122°26'0 0.0
2017-Apr-22 16:30N 47°15' W 122°26'0 0.0
2017-Apr-22 16:00N 47°15' W 122°26'0 0.0
2017-Apr-22 15:30N 47°15' W 122°26'0 0.0
2017-Apr-22 15:00N 47°15' W 122°26'0 0.0
2017-Apr-22 14:30N 47°15' W 122°26'0 0.0
2017-Apr-22 13:30N 47°15' W 122°26'0 0.0
2017-Apr-22 13:00N 47°15' W 122°26'0 0.0
2017-Apr-22 12:30N 47°15' W 122°26'0 0.0
2017-Apr-22 12:00N 47°15' W 122°26'0 0.0
2017-Apr-22 11:30N 47°15' W 122°26'0 0.0
2017-Apr-22 11:00N 47°15' W 122°26'0 0.0
2017-Apr-22 10:30N 47°15' W 122°26'0 0.0
2017-Apr-22 10:00N 47°15' W 122°26'0 0.0
2017-Apr-22 09:30N 47°15' W 122°26'0 0.0
2017-Apr-22 09:00N 47°15' W 122°26'0 0.0
2017-Apr-22 08:30N 47°15' W 122°26'0 0.0
2017-Apr-22 07:59N 47°15' W 122°26'0 0.0
2017-Apr-22 07:28N 47°15' W 122°26'0 0.0
2017-Apr-22 07:00N 47°15' W 122°26'0 0.0
2017-Apr-22 06:30N 47°15' W 122°26'0 0.0
2017-Apr-22 06:00N 47°15' W 122°26'0 0.0
2017-Apr-22 05:29N 47°15' W 122°26'0 0.0
2017-Apr-22 04:57N 47°15' W 122°26'0 0.0
2017-Apr-22 04:30N 47°15' W 122°26'0 0.0
2017-Apr-22 04:00N 47°15' W 122°26'0 0.0
2017-Apr-22 03:30N 47°15' W 122°26'0 0.0
2017-Apr-22 03:00N 47°15' W 122°26'0 0.0
2017-Apr-22 02:30N 47°15' W 122°26'0 0.0
2017-Apr-22 01:57N 47°15' W 122°26'0 0.0
2017-Apr-22 01:30N 47°15' W 122°26'1 1.3
2017-Apr-22 01:00N 47°16' W 122°26'1 1.0
2017-Apr-22 00:00N 47°16' W 122°25'1 2.2
2017-Apr-21 23:30N 47°15' W 122°26'0 0.0
2017-Apr-21 23:00N 47°15' W 122°26'0 0.0
2017-Apr-21 22:30N 47°15' W 122°26'0 0.0
2017-Apr-21 22:00N 47°15' W 122°26'0 0.0
2017-Apr-21 21:30N 47°15' W 122°26'0 0.0
2017-Apr-21 21:00N 47°15' W 122°26'0 0.0
2017-Apr-21 20:30N 47°15' W 122°26'0 0.0
2017-Apr-21 20:00N 47°15' W 122°26'0 0.0
2017-Apr-21 19:30N 47°15' W 122°26'0 0.0
2017-Apr-21 19:00N 47°15' W 122°26'0 0.0
2017-Apr-21 18:30N 47°15' W 122°26'0 0.0
2017-Apr-21 18:00N 47°15' W 122°26'0 0.0
2017-Apr-21 17:19N 47°15' W 122°26'0 0.0
2017-Apr-21 16:28N 47°15' W 122°26'0 0.0
2017-Apr-21 16:00N 47°15' W 122°26'0 0.0
2017-Apr-21 15:30N 47°15' W 122°26'0 0.0
2017-Apr-21 15:00N 47°15' W 122°26'0 0.0
2017-Apr-21 14:29N 47°15' W 122°26'0 0.0
2017-Apr-21 11:55N 47°15' W 122°26'0 0.0
2017-Apr-21 11:30N 47°15' W 122°26'0 0.0
2017-Apr-21 10:55N 47°15' W 122°26'0 0.0
2017-Apr-21 10:27N 47°15' W 122°26'0 0.0
2017-Apr-21 10:00N 47°15' W 122°26'0 0.0
2017-Apr-21 09:30N 47°15' W 122°26'0 0.0
2017-Apr-21 08:59N 47°15' W 122°26'0 0.0
2017-Apr-21 08:30N 47°15' W 122°26'0 0.0
2017-Apr-21 08:00N 47°15' W 122°26'0 0.0
2017-Apr-21 06:38N 47°15' W 122°26'0 0.0
2017-Apr-21 05:49N 47°15' W 122°26'0 0.0
2017-Apr-21 05:28N 47°15' W 122°26'2 3.4
2017-Apr-21 05:00N 47°17' W 122°26'2 3.7
2017-Apr-21 04:30N 47°16' W 122°23'1 1.4
2017-Apr-21 04:00N 47°16' W 122°24'2 3.5
2017-Apr-21 03:30N 47°17' W 122°26'0 1.0
2017-Apr-21 03:00N 47°18' W 122°26'0 0.0
2017-Apr-21 02:28N 47°18' W 122°26'2 3.7
2017-Apr-21 02:00N 47°16' W 122°24'1 2.1
2017-Apr-21 01:18N 47°15' W 122°23'0 0.3
2017-Apr-21 00:58N 47°15' W 122°23'2 3.1
2017-Apr-21 00:25N 47°16' W 122°25'0 0.9
2017-Apr-21 00:00N 47°16' W 122°25'1 2.8
2017-Apr-20 23:31N 47°17' W 122°27'2 3.0
2017-Apr-20 23:00N 47°16' W 122°25'1 1.1
2017-Apr-20 22:08N 47°16' W 122°24'0 0.0
2017-Apr-20 21:58N 47°16' W 122°24'0 0.3
2017-Apr-20 21:17N 47°16' W 122°24'2 6.7
2017-Apr-20 21:00N 47°17' W 122°26'3 6.6
2017-Apr-20 20:30N 47°21' W 122°25'4 8.4
2017-Apr-20 20:00N 47°24' W 122°23'510.1
2017-Apr-20 19:30N 47°29' W 122°26'510.0
2017-Apr-20 19:01N 47°34' W 122°27'4 8.2
2017-Apr-20 18:30N 47°36' W 122°21'0 0.6
2017-Apr-20 18:00N 47°35' W 122°21'0 0.0
2017-Apr-20 17:30N 47°35' W 122°21'0 0.0
2017-Apr-20 17:00N 47°35' W 122°21'0 0.0
2017-Apr-20 16:30N 47°35' W 122°21'0 0.0
2017-Apr-20 16:00N 47°35' W 122°21'0 0.0
2017-Apr-20 15:30N 47°35' W 122°21'0 0.0
2017-Apr-20 15:00N 47°35' W 122°21'0 0.0
2017-Apr-20 14:30N 47°35' W 122°21'0 0.0
2017-Apr-20 13:30N 47°35' W 122°21'0 0.0
2017-Apr-20 13:00N 47°35' W 122°21'0 0.0
2017-Apr-20 12:30N 47°35' W 122°21'0 0.0
2017-Apr-20 12:00N 47°35' W 122°21'0 0.0
2017-Apr-20 11:30N 47°35' W 122°21'0 0.0
2017-Apr-20 11:00N 47°35' W 122°21'0 0.5
2017-Apr-20 10:31N 47°36' W 122°21'1 1.6
2017-Apr-20 10:00N 47°35' W 122°21'0 0.1
2017-Apr-20 09:30N 47°35' W 122°21'2 4.8
2017-Apr-20 09:00N 47°36' W 122°24'4 7.2
2017-Apr-20 08:30N 47°32' W 122°25'4 8.2
2017-Apr-20 08:01N 47°28' W 122°24'4 8.0
2017-Apr-20 07:30N 47°25' W 122°22'3 6.5
2017-Apr-20 07:00N 47°22' W 122°23'4 7.8
2017-Apr-20 06:30N 47°19' W 122°27'3 6.9
2017-Apr-20 06:00N 47°15' W 122°26'0 0.0
2017-Apr-20 05:30N 47°15' W 122°26'0 0.0
2017-Apr-20 05:00N 47°15' W 122°26'0 0.0
2017-Apr-20 04:30N 47°15' W 122°26'0 0.0
2017-Apr-20 04:00N 47°15' W 122°26'0 0.0
2017-Apr-20 03:30N 47°15' W 122°26'0 0.0
2017-Apr-20 03:00N 47°15' W 122°26'0 0.0
2017-Apr-20 02:29N 47°15' W 122°26'0 0.0
2017-Apr-20 02:00N 47°15' W 122°26'0 0.0
2017-Apr-20 01:30N 47°15' W 122°26'0 0.0
2017-Apr-20 01:00N 47°15' W 122°26'0 0.0
2017-Apr-20 00:24N 47°15' W 122°26'0 0.0
2017-Apr-20 00:00N 47°15' W 122°26'2 2.3
2017-Apr-19 23:17N 47°17' W 122°24'1 2.1
2017-Apr-19 23:00N 47°17' W 122°25'1 2.1
2017-Apr-19 22:31N 47°16' W 122°26'1 1.8
2017-Apr-19 22:00N 47°15' W 122°26'0 0.0
2017-Apr-19 21:30N 47°15' W 122°26'0 0.0
2017-Apr-19 20:17N 47°15' W 122°26'0 0.0
2017-Apr-19 20:00N 47°15' W 122°26'0 0.0
2017-Apr-19 19:30N 47°15' W 122°26'0 0.0
2017-Apr-19 19:00N 47°15' W 122°26'0 0.0
2017-Apr-19 18:30N 47°15' W 122°26'0 0.0
2017-Apr-19 18:00N 47°15' W 122°26'0 0.0
2017-Apr-19 17:30N 47°15' W 122°26'0 0.0
2017-Apr-19 17:00N 47°15' W 122°26'0 0.0
2017-Apr-19 16:29N 47°15' W 122°26'0 0.0
2017-Apr-19 16:00N 47°15' W 122°26'0 0.0
2017-Apr-19 15:30N 47°15' W 122°26'0 0.0
2017-Apr-19 15:00N 47°15' W 122°26'0 0.0
2017-Apr-19 14:30N 47°15' W 122°26'1 1.9
2017-Apr-19 14:00N 47°16' W 122°26'1 1.5
2017-Apr-19 13:29N 47°16' W 122°25'1 1.3
2017-Apr-19 13:00N 47°17' W 122°25'1 1.7
2017-Apr-19 12:30N 47°18' W 122°26'0 0.4
2017-Apr-19 12:00N 47°17' W 122°26'2 3.1
2017-Apr-19 11:24N 47°16' W 122°24'0 0.0
2017-Apr-19 11:00N 47°16' W 122°24'0 0.0
2017-Apr-19 10:29N 47°16' W 122°24'0 0.1
2017-Apr-19 10:00N 47°16' W 122°24'1 1.7
2017-Apr-19 09:30N 47°17' W 122°25'2 3.2
2017-Apr-19 09:00N 47°15' W 122°26'0 0.0
2017-Apr-19 08:30N 47°15' W 122°26'0 0.0
2017-Apr-19 08:00N 47°15' W 122°26'0 0.0
2017-Apr-19 07:30N 47°15' W 122°26'0 0.0
2017-Apr-19 07:00N 47°15' W 122°26'0 0.0
2017-Apr-19 06:30N 47°15' W 122°26'0 0.0
2017-Apr-19 06:00N 47°15' W 122°26'0 0.0
2017-Apr-19 05:30N 47°15' W 122°26'0 0.0
2017-Apr-19 05:00N 47°15' W 122°26'0 0.0
2017-Apr-19 04:30N 47°15' W 122°26'0 0.0
2017-Apr-19 04:00N 47°15' W 122°26'2 3.0
2017-Apr-19 03:28N 47°17' W 122°25'0 0.2
2017-Apr-19 03:01N 47°17' W 122°25'3 5.3
2017-Apr-19 02:31N 47°19' W 122°27'4 8.9
2017-Apr-19 02:01N 47°22' W 122°23'4 8.1
2017-Apr-19 01:31N 47°26' W 122°24'5 9.5
2017-Apr-19 01:01N 47°31' W 122°26'4 8.1
2017-Apr-19 00:30N 47°35' W 122°26'3 6.7
2017-Apr-19 00:00N 47°35' W 122°21'0 0.0
2017-Apr-18 23:30N 47°35' W 122°21'0 0.0
2017-Apr-18 23:00N 47°35' W 122°21'0 0.0
2017-Apr-18 22:30N 47°35' W 122°21'0 0.0
2017-Apr-18 22:00N 47°35' W 122°21'0 0.0
2017-Apr-18 21:30N 47°35' W 122°21'0 0.0
2017-Apr-18 21:00N 47°35' W 122°21'0 0.0
2017-Apr-18 20:30N 47°35' W 122°21'0 0.0
2017-Apr-18 20:00N 47°35' W 122°21'0 0.0
2017-Apr-18 19:30N 47°35' W 122°21'0 0.0
2017-Apr-18 19:00N 47°35' W 122°21'0 0.0
2017-Apr-18 18:30N 47°35' W 122°21'0 0.0
2017-Apr-18 18:00N 47°35' W 122°21'0 0.5
2017-Apr-18 17:30N 47°35' W 122°21'1 2.6
2017-Apr-18 17:00N 47°36' W 122°21'3 5.0
2017-Apr-18 16:30N 47°35' W 122°25'4 7.3
2017-Apr-18 16:00N 47°32' W 122°25'510.7
2017-Apr-18 15:31N 47°27' W 122°23'5 9.5
2017-Apr-18 15:01N 47°22' W 122°22'5 9.9
2017-Apr-18 14:31N 47°18' W 122°27'1 1.1
2017-Apr-18 13:30N 47°17' W 122°26'0 0.8
2017-Apr-18 13:00N 47°17' W 122°26'2 3.4
2017-Apr-18 12:30N 47°15' W 122°26'0 0.0
2017-Apr-18 12:00N 47°15' W 122°26'0 0.0
2017-Apr-18 11:30N 47°15' W 122°26'0 0.0
2017-Apr-18 11:00N 47°15' W 122°26'0 0.0
2017-Apr-18 10:30N 47°15' W 122°26'0 0.0
2017-Apr-18 10:00N 47°15' W 122°26'0 0.0
2017-Apr-18 09:30N 47°15' W 122°26'0 0.0
2017-Apr-18 09:00N 47°15' W 122°26'0 0.0
2017-Apr-18 08:30N 47°15' W 122°26'0 0.0
2017-Apr-18 08:00N 47°15' W 122°26'0 0.0
2017-Apr-18 07:30N 47°15' W 122°26'0 0.0
2017-Apr-18 07:00N 47°15' W 122°26'0 0.0
2017-Apr-18 06:30N 47°15' W 122°26'0 0.0
2017-Apr-18 06:00N 47°15' W 122°26'0 0.0
2017-Apr-18 05:25N 47°15' W 122°26'0 0.0
2017-Apr-18 05:00N 47°15' W 122°26'0 0.0
2017-Apr-18 04:30N 47°15' W 122°26'0 0.0
2017-Apr-18 04:00N 47°15' W 122°26'0 0.0
2017-Apr-18 03:30N 47°15' W 122°26'0 0.0
2017-Apr-18 03:00N 47°15' W 122°26'0 0.0
2017-Apr-18 02:29N 47°15' W 122°26'0 0.0
2017-Apr-18 02:00N 47°15' W 122°26'1 2.2
2017-Apr-18 01:30N 47°16' W 122°25'0 0.1
2017-Apr-18 01:00N 47°16' W 122°25'0 0.2
2017-Apr-18 00:31N 47°16' W 122°25'4 8.3
2017-Apr-18 00:01N 47°20' W 122°27'5 9.3
2017-Apr-17 23:30N 47°24' W 122°22'5 9.0
2017-Apr-17 23:00N 47°28' W 122°24'4 8.8
2017-Apr-17 22:30N 47°33' W 122°25'4 7.1
2017-Apr-17 22:01N 47°36' W 122°23'2 3.1
2017-Apr-17 21:30N 47°35' W 122°21'0 0.0
2017-Apr-17 21:00N 47°35' W 122°21'1 1.1
2017-Apr-17 20:30N 47°35' W 122°21'0 1.0
2017-Apr-17 20:00N 47°35' W 122°21'1 2.2
2017-Apr-17 19:30N 47°36' W 122°22'0 0.9
2017-Apr-17 19:00N 47°36' W 122°23'1 1.6
2017-Apr-17 18:30N 47°36' W 122°24'3 6.9
2017-Apr-17 18:01N 47°32' W 122°25'4 8.2
2017-Apr-17 17:30N 47°28' W 122°24'4 8.4
2017-Apr-17 17:00N 47°24' W 122°22'4 7.1
2017-Apr-17 16:31N 47°21' W 122°24'  
Track history (hours):
 
Tides and Currents Weather Stations Pressure Air Temp Water Temp Dewpoint Dewpoint Depression Visibility Wind Speed Wind Dir Waves Ship Positions

Guide

Owner: Crowley Marine Services, SEATTLE, WA. More information available from US FCC via Universal Licensing System and Coast Guard Vessel Documentation Center.

Last reported at 2017-Apr-27 16:30 UTC. Time now 2017-Apr-27 16:42 UTC.
Position N 47°22' W 122°23'.

Length 34 m; draft 5.1 m.

Type: Tug. MMSI: 366759530.

Date/timePositionNaut miles runAvg speedWind from/ knotsBaromVisibWave heightAir tempDewpointWater temp
2017-Apr-27 16:30N 47°22' W 122°23'4 8.7
2017-Apr-27 16:00N 47°27' W 122°25'5 9.7
2017-Apr-27 15:30N 47°31' W 122°26'5 9.8
2017-Apr-27 15:01N 47°36' W 122°28'1010.0
2017-Apr-27 14:00N 47°46' W 122°27'510.2
2017-Apr-27 13:30N 47°51' W 122°29'5 9.5
2017-Apr-27 13:01N 47°56' W 122°31'1210.0
2017-Apr-27 11:51N 48°05' W 122°40'711.0
2017-Apr-27 11:13N 48°11' W 122°47'510.6
2017-Apr-27 10:47N 48°15' W 122°49'510.3
2017-Apr-27 10:19N 48°20' W 122°47'410.0
2017-Apr-27 09:57N 48°23' W 122°45'4 9.8
2017-Apr-27 09:30N 48°28' W 122°45'5 9.7
2017-Apr-27 09:00N 48°32' W 122°45'510.1
2017-Apr-27 08:31N 48°37' W 122°45'5 9.7
2017-Apr-27 08:00N 48°42' W 122°45'8 3.3
2017-Apr-27 05:25N 48°51' W 122°45'0 0.1
2017-Apr-27 03:28N 48°51' W 122°45'511.9
2017-Apr-27 03:00N 48°45' W 122°44'612.1
2017-Apr-27 02:30N 48°39' W 122°43'612.7
2017-Apr-27 02:00N 48°33' W 122°45'612.9
2017-Apr-27 01:30N 48°27' W 122°46'610.9
2017-Apr-27 01:00N 48°22' W 122°51'611.2
2017-Apr-27 00:30N 48°19' W 122°58'611.1
2017-Apr-27 00:00N 48°16' W 123°05'611.3
2017-Apr-26 23:30N 48°14' W 123°13'611.6
2017-Apr-26 23:01N 48°10' W 123°20'5 9.9
2017-Apr-26 22:30N 48°08' W 123°26'0 0.8
2017-Apr-26 22:00N 48°08' W 123°27'2 4.4
2017-Apr-26 21:30N 48°08' W 123°23'4 8.6
2017-Apr-26 21:00N 48°10' W 123°18'5 9.1
2017-Apr-26 20:30N 48°12' W 123°11'5 9.2
2017-Apr-26 19:59N 48°13' W 123°05'510.2
2017-Apr-26 19:29N 48°12' W 122°57'710.9
2017-Apr-26 18:48N 48°11' W 122°46'710.9
2017-Apr-26 18:10N 48°06' W 122°39'213.2
2017-Apr-26 18:00N 48°04' W 122°38'712.8
2017-Apr-26 17:30N 47°58' W 122°34'611.4
2017-Apr-26 17:00N 47°54' W 122°29'511.0
2017-Apr-26 16:30N 47°48' W 122°26'511.0
2017-Apr-26 16:00N 47°43' W 122°26'611.2
2017-Apr-26 15:30N 47°37' W 122°27'611.3
2017-Apr-26 15:00N 47°32' W 122°25'1010.3
2017-Apr-26 14:00N 47°21' W 122°23'4 8.8
2017-Apr-26 13:30N 47°17' W 122°26'1 2.2
2017-Apr-26 13:00N 47°17' W 122°25'1 2.4
2017-Apr-26 12:30N 47°17' W 122°26'1 0.8
2017-Apr-26 11:55N 47°18' W 122°26'0 0.0
2017-Apr-26 11:30N 47°18' W 122°26'0 0.0
2017-Apr-26 10:57N 47°18' W 122°26'0 0.0
2017-Apr-26 10:24N 47°18' W 122°26'0 0.0
2017-Apr-26 10:00N 47°18' W 122°26'1 1.5
2017-Apr-26 09:31N 47°18' W 122°27'3 6.4
2017-Apr-26 09:00N 47°21' W 122°25'4 7.2
2017-Apr-26 08:31N 47°24' W 122°22'4 7.7
2017-Apr-26 08:00N 47°27' W 122°25'4 7.7
2017-Apr-26 07:30N 47°31' W 122°26'4 8.0
2017-Apr-26 07:00N 47°35' W 122°28'4 7.5
2017-Apr-26 06:30N 47°39' W 122°28'4 7.3
2017-Apr-26 06:00N 47°42' W 122°28'4 7.3
2017-Apr-26 05:30N 47°46' W 122°27'4 7.5
2017-Apr-26 05:00N 47°50' W 122°28'4 7.3
2017-Apr-26 04:30N 47°53' W 122°29'3 6.3
2017-Apr-26 04:00N 47°56' W 122°32'4 5.7
2017-Apr-26 03:19N 47°58' W 122°36'13 5.9
2017-Apr-26 01:05N 48°10' W 122°46'1 6.9
2017-Apr-26 00:57N 48°10' W 122°47'4 7.7
2017-Apr-26 00:30N 48°11' W 122°52'4 8.1
2017-Apr-26 00:00N 48°11' W 122°58'5 9.3
2017-Apr-25 23:30N 48°12' W 123°05'5 9.9
2017-Apr-25 23:00N 48°11' W 123°12'5 9.7
2017-Apr-25 22:30N 48°09' W 123°19'4 8.7
2017-Apr-25 22:01N 48°08' W 123°25'1 1.4
2017-Apr-25 21:31N 48°08' W 123°26'2 3.3
2017-Apr-25 21:00N 48°08' W 123°24'3 6.2
2017-Apr-25 20:30N 48°09' W 123°20'3 5.2
2017-Apr-25 20:00N 48°10' W 123°16'4 7.5
2017-Apr-25 19:30N 48°11' W 123°11'4 7.3
2017-Apr-25 19:00N 48°13' W 123°06'4 7.8
2017-Apr-25 18:30N 48°12' W 123°00'4 8.6
2017-Apr-25 18:00N 48°12' W 122°54'5 9.5
2017-Apr-25 17:29N 48°11' W 122°47'810.4
2017-Apr-25 16:42N 48°05' W 122°38'211.4
2017-Apr-25 16:30N 48°03' W 122°38'510.7
2017-Apr-25 16:00N 47°58' W 122°34'611.1
2017-Apr-25 15:31N 47°54' W 122°29'611.6
2017-Apr-25 15:00N 47°48' W 122°26'1111.4
2017-Apr-25 14:00N 47°37' W 122°27'611.1
2017-Apr-25 13:30N 47°32' W 122°25'510.8
2017-Apr-25 13:00N 47°26' W 122°23'5 9.1
2017-Apr-25 12:30N 47°22' W 122°23'510.1
2017-Apr-25 12:00N 47°18' W 122°27'2 4.8
2017-Apr-25 11:30N 47°15' W 122°26'0 0.0
2017-Apr-25 11:00N 47°15' W 122°26'0 0.0
2017-Apr-25 09:53N 47°15' W 122°26'0 0.0
2017-Apr-25 09:30N 47°15' W 122°26'0 0.0
2017-Apr-25 09:00N 47°15' W 122°26'0 0.0
2017-Apr-25 08:30N 47°15' W 122°26'0 0.0
2017-Apr-25 07:55N 47°15' W 122°26'0 0.0
2017-Apr-25 07:30N 47°15' W 122°26'0 0.0
2017-Apr-25 07:00N 47°15' W 122°26'0 0.0
2017-Apr-25 06:30N 47°15' W 122°26'0 0.0
2017-Apr-25 06:00N 47°15' W 122°26'0 0.0
2017-Apr-25 05:30N 47°15' W 122°26'0 0.0
2017-Apr-25 05:00N 47°15' W 122°26'0 0.0
2017-Apr-25 04:30N 47°15' W 122°26'0 0.0
2017-Apr-25 04:00N 47°15' W 122°26'0 0.0
2017-Apr-25 03:30N 47°15' W 122°26'0 0.0
2017-Apr-25 03:00N 47°15' W 122°26'0 0.0
2017-Apr-25 02:30N 47°15' W 122°26'0 0.0
2017-Apr-25 02:00N 47°15' W 122°26'0 0.0
2017-Apr-25 01:30N 47°15' W 122°26'2 3.2
2017-Apr-25 01:00N 47°17' W 122°24'2 3.3
2017-Apr-25 00:30N 47°15' W 122°23'0 0.6
2017-Apr-25 00:00N 47°16' W 122°23'1 3.0
2017-Apr-24 23:30N 47°17' W 122°25'2 3.1
2017-Apr-24 23:00N 47°15' W 122°26'0 0.0
2017-Apr-24 22:30N 47°15' W 122°26'0 0.0
2017-Apr-24 22:00N 47°15' W 122°26'0 0.0
2017-Apr-24 21:30N 47°15' W 122°26'0 0.0
2017-Apr-24 21:00N 47°15' W 122°26'0 0.0
2017-Apr-24 20:30N 47°15' W 122°26'0 0.0
2017-Apr-24 20:00N 47°15' W 122°26'0 0.0
2017-Apr-24 19:30N 47°15' W 122°26'0 0.0
2017-Apr-24 18:57N 47°15' W 122°26'0 0.0
2017-Apr-24 18:30N 47°15' W 122°26'0 0.0
2017-Apr-24 18:00N 47°15' W 122°26'0 0.0
2017-Apr-24 17:30N 47°15' W 122°26'0 0.0
2017-Apr-24 17:00N 47°15' W 122°26'0 0.0
2017-Apr-24 16:30N 47°15' W 122°26'0 0.0
2017-Apr-24 16:00N 47°15' W 122°26'0 0.0
2017-Apr-24 15:30N 47°15' W 122°26'0 0.0
2017-Apr-24 14:59N 47°15' W 122°26'0 0.0
2017-Apr-24 14:21N 47°15' W 122°26'0 0.0
2017-Apr-24 13:30N 47°15' W 122°26'0 0.0
2017-Apr-24 13:00N 47°15' W 122°26'0 0.0
2017-Apr-24 11:44N 47°15' W 122°26'0 0.0
2017-Apr-24 11:30N 47°15' W 122°26'0 0.0
2017-Apr-24 11:00N 47°15' W 122°26'0 0.0
2017-Apr-24 10:26N 47°15' W 122°26'0 0.0
2017-Apr-24 10:00N 47°15' W 122°26'0 0.0
2017-Apr-24 09:30N 47°15' W 122°26'0 0.0
2017-Apr-24 09:00N 47°15' W 122°26'0 0.0
2017-Apr-24 08:29N 47°15' W 122°26'0 0.0
2017-Apr-24 07:59N 47°15' W 122°26'0 0.0
2017-Apr-24 07:28N 47°15' W 122°26'0 0.0
2017-Apr-24 07:00N 47°15' W 122°26'0 0.0
2017-Apr-24 06:30N 47°15' W 122°26'0 0.0
2017-Apr-24 06:00N 47°15' W 122°26'0 0.0
2017-Apr-24 05:30N 47°15' W 122°26'0 0.0
2017-Apr-24 05:00N 47°15' W 122°26'0 0.0
2017-Apr-24 04:30N 47°15' W 122°26'0 0.0
2017-Apr-24 04:00N 47°15' W 122°26'0 0.0
2017-Apr-24 03:28N 47°15' W 122°26'2 3.6
2017-Apr-24 03:00N 47°17' W 122°26'1 2.7
2017-Apr-24 02:30N 47°16' W 122°24'1 1.7
2017-Apr-24 02:00N 47°16' W 122°23'0 0.1
2017-Apr-24 01:30N 47°16' W 122°23'1 2.7
2017-Apr-24 00:58N 47°17' W 122°25'1 3.1
2017-Apr-24 00:30N 47°18' W 122°26'1 2.6
2017-Apr-24 00:00N 47°16' W 122°26'1 2.2
2017-Apr-23 23:30N 47°15' W 122°26'0 0.0
2017-Apr-23 23:00N 47°15' W 122°26'0 0.0
2017-Apr-23 22:30N 47°15' W 122°26'0 0.0
2017-Apr-23 22:00N 47°15' W 122°26'0 0.0
2017-Apr-23 21:30N 47°15' W 122°26'0 0.0
2017-Apr-23 21:00N 47°15' W 122°26'0 0.0
2017-Apr-23 20:30N 47°15' W 122°26'0 0.0
2017-Apr-23 19:57N 47°15' W 122°26'0 0.0
2017-Apr-23 19:30N 47°15' W 122°26'0 0.0
2017-Apr-23 18:55N 47°15' W 122°26'0 0.0
2017-Apr-23 18:30N 47°15' W 122°26'0 0.0
2017-Apr-23 18:00N 47°15' W 122°26'0 0.0
2017-Apr-23 17:30N 47°15' W 122°26'0 0.0
2017-Apr-23 17:00N 47°15' W 122°26'2 3.1
2017-Apr-23 16:29N 47°17' W 122°25'3 0.4
2017-Apr-23 08:41N 47°19' W 122°27'6 7.0
2017-Apr-23 07:52N 47°23' W 122°22'2 6.6
2017-Apr-23 07:30N 47°25' W 122°24'4 7.8
2017-Apr-23 07:00N 47°29' W 122°26'4 7.9
2017-Apr-23 06:30N 47°33' W 122°27'3 7.0
2017-Apr-23 06:00N 47°36' W 122°24'2 4.9
2017-Apr-23 05:30N 47°35' W 122°21'0 0.0
2017-Apr-23 04:59N 47°35' W 122°21'0 0.0
2017-Apr-23 04:28N 47°35' W 122°21'0 0.0
2017-Apr-23 04:00N 47°35' W 122°21'0 0.0
2017-Apr-23 03:29N 47°35' W 122°21'0 0.0
2017-Apr-23 03:00N 47°35' W 122°21'0 0.0
2017-Apr-23 02:27N 47°35' W 122°21'0 0.0
2017-Apr-23 02:00N 47°35' W 122°21'0 0.0
2017-Apr-23 01:24N 47°35' W 122°21'0 0.0
2017-Apr-23 01:00N 47°35' W 122°21'0 0.4
2017-Apr-23 00:30N 47°35' W 122°21'0 0.0
2017-Apr-23 00:00N 47°35' W 122°21'0 0.7
2017-Apr-22 23:31N 47°35' W 122°21'1 1.4
2017-Apr-22 23:00N 47°36' W 122°21'1 2.2
2017-Apr-22 22:30N 47°37' W 122°21'1 2.6
2017-Apr-22 22:00N 47°36' W 122°23'3 6.8
2017-Apr-22 21:30N 47°33' W 122°25'510.4
2017-Apr-22 21:00N 47°28' W 122°24'5 9.8
2017-Apr-22 20:30N 47°23' W 122°21'5 9.3
2017-Apr-22 20:01N 47°20' W 122°26'4 8.7
2017-Apr-22 19:29N 47°15' W 122°26'0 0.3
2017-Apr-22 19:00N 47°15' W 122°26'0 0.0
2017-Apr-22 18:29N 47°15' W 122°26'0 0.0
2017-Apr-22 18:00N 47°15' W 122°26'0 0.0
2017-Apr-22 17:30N 47°15' W 122°26'0 0.0
2017-Apr-22 17:00N 47°15' W 122°26'0 0.0
2017-Apr-22 16:30N 47°15' W 122°26'0 0.0
2017-Apr-22 16:00N 47°15' W 122°26'0 0.0
2017-Apr-22 15:30N 47°15' W 122°26'0 0.0
2017-Apr-22 15:00N 47°15' W 122°26'0 0.0
2017-Apr-22 14:30N 47°15' W 122°26'0 0.0
2017-Apr-22 13:30N 47°15' W 122°26'0 0.0
2017-Apr-22 13:00N 47°15' W 122°26'0 0.0
2017-Apr-22 12:30N 47°15' W 122°26'0 0.0
2017-Apr-22 12:00N 47°15' W 122°26'0 0.0
2017-Apr-22 11:30N 47°15' W 122°26'0 0.0
2017-Apr-22 11:00N 47°15' W 122°26'0 0.0
2017-Apr-22 10:30N 47°15' W 122°26'0 0.0
2017-Apr-22 10:00N 47°15' W 122°26'0 0.0
2017-Apr-22 09:30N 47°15' W 122°26'0 0.0
2017-Apr-22 09:00N 47°15' W 122°26'0 0.0
2017-Apr-22 08:30N 47°15' W 122°26'0 0.0
2017-Apr-22 07:59N 47°15' W 122°26'0 0.0
2017-Apr-22 07:28N 47°15' W 122°26'0 0.0
2017-Apr-22 07:00N 47°15' W 122°26'0 0.0
2017-Apr-22 06:30N 47°15' W 122°26'0 0.0
2017-Apr-22 06:00N 47°15' W 122°26'0 0.0
2017-Apr-22 05:29N 47°15' W 122°26'0 0.0
2017-Apr-22 04:57N 47°15' W 122°26'0 0.0
2017-Apr-22 04:30N 47°15' W 122°26'0 0.0
2017-Apr-22 04:00N 47°15' W 122°26'0 0.0
2017-Apr-22 03:30N 47°15' W 122°26'0 0.0
2017-Apr-22 03:00N 47°15' W 122°26'0 0.0
2017-Apr-22 02:30N 47°15' W 122°26'0 0.0
2017-Apr-22 01:57N 47°15' W 122°26'0 0.0
2017-Apr-22 01:30N 47°15' W 122°26'1 1.3
2017-Apr-22 01:00N 47°16' W 122°26'1 1.0
2017-Apr-22 00:00N 47°16' W 122°25'1 2.2
2017-Apr-21 23:30N 47°15' W 122°26'0 0.0
2017-Apr-21 23:00N 47°15' W 122°26'0 0.0
2017-Apr-21 22:30N 47°15' W 122°26'0 0.0
2017-Apr-21 22:00N 47°15' W 122°26'0 0.0
2017-Apr-21 21:30N 47°15' W 122°26'0 0.0
2017-Apr-21 21:00N 47°15' W 122°26'0 0.0
2017-Apr-21 20:30N 47°15' W 122°26'0 0.0
2017-Apr-21 20:00N 47°15' W 122°26'0 0.0
2017-Apr-21 19:30N 47°15' W 122°26'0 0.0
2017-Apr-21 19:00N 47°15' W 122°26'0 0.0
2017-Apr-21 18:30N 47°15' W 122°26'0 0.0
2017-Apr-21 18:00N 47°15' W 122°26'0 0.0
2017-Apr-21 17:19N 47°15' W 122°26'0 0.0
2017-Apr-21 16:28N 47°15' W 122°26'0 0.0
2017-Apr-21 16:00N 47°15' W 122°26'0 0.0
2017-Apr-21 15:30N 47°15' W 122°26'0 0.0
2017-Apr-21 15:00N 47°15' W 122°26'0 0.0
2017-Apr-21 14:29N 47°15' W 122°26'0 0.0
2017-Apr-21 11:55N 47°15' W 122°26'0 0.0
2017-Apr-21 11:30N 47°15' W 122°26'0 0.0
2017-Apr-21 10:55N 47°15' W 122°26'0 0.0
2017-Apr-21 10:27N 47°15' W 122°26'0 0.0
2017-Apr-21 10:00N 47°15' W 122°26'0 0.0
2017-Apr-21 09:30N 47°15' W 122°26'0 0.0
2017-Apr-21 08:59N 47°15' W 122°26'0 0.0
2017-Apr-21 08:30N 47°15' W 122°26'0 0.0
2017-Apr-21 08:00N 47°15' W 122°26'0 0.0
2017-Apr-21 06:38N 47°15' W 122°26'0 0.0
2017-Apr-21 05:49N 47°15' W 122°26'0 0.0
2017-Apr-21 05:28N 47°15' W 122°26'2 3.4
2017-Apr-21 05:00N 47°17' W 122°26'2 3.7
2017-Apr-21 04:30N 47°16' W 122°23'1 1.4
2017-Apr-21 04:00N 47°16' W 122°24'2 3.5
2017-Apr-21 03:30N 47°17' W 122°26'0 1.0
2017-Apr-21 03:00N 47°18' W 122°26'0 0.0
2017-Apr-21 02:28N 47°18' W 122°26'2 3.7
2017-Apr-21 02:00N 47°16' W 122°24'1 2.1
2017-Apr-21 01:18N 47°15' W 122°23'0 0.3
2017-Apr-21 00:58N 47°15' W 122°23'2 3.1
2017-Apr-21 00:25N 47°16' W 122°25'0 0.9
2017-Apr-21 00:00N 47°16' W 122°25'1 2.8
2017-Apr-20 23:31N 47°17' W 122°27'2 3.0
2017-Apr-20 23:00N 47°16' W 122°25'1 1.1
2017-Apr-20 22:08N 47°16' W 122°24'0 0.0
2017-Apr-20 21:58N 47°16' W 122°24'0 0.3
2017-Apr-20 21:17N 47°16' W 122°24'2 6.7
2017-Apr-20 21:00N 47°17' W 122°26'3 6.6
2017-Apr-20 20:30N 47°21' W 122°25'4 8.4
2017-Apr-20 20:00N 47°24' W 122°23'510.1
2017-Apr-20 19:30N 47°29' W 122°26'510.0
2017-Apr-20 19:01N 47°34' W 122°27'4 8.2
2017-Apr-20 18:30N 47°36' W 122°21'0 0.6
2017-Apr-20 18:00N 47°35' W 122°21'0 0.0
2017-Apr-20 17:30N 47°35' W 122°21'0 0.0
2017-Apr-20 17:00N 47°35' W 122°21'0 0.0
2017-Apr-20 16:30N 47°35' W 122°21'0 0.0
2017-Apr-20 16:00N 47°35' W 122°21'0 0.0
2017-Apr-20 15:30N 47°35' W 122°21'0 0.0
2017-Apr-20 15:00N 47°35' W 122°21'0 0.0
2017-Apr-20 14:30N 47°35' W 122°21'0 0.0
2017-Apr-20 13:30N 47°35' W 122°21'0 0.0
2017-Apr-20 13:00N 47°35' W 122°21'0 0.0
2017-Apr-20 12:30N 47°35' W 122°21'0 0.0
2017-Apr-20 12:00N 47°35' W 122°21'0 0.0
2017-Apr-20 11:30N 47°35' W 122°21'0 0.0
2017-Apr-20 11:00N 47°35' W 122°21'0 0.5
2017-Apr-20 10:31N 47°36' W 122°21'1 1.6
2017-Apr-20 10:00N 47°35' W 122°21'0 0.1
2017-Apr-20 09:30N 47°35' W 122°21'2 4.8
2017-Apr-20 09:00N 47°36' W 122°24'4 7.2
2017-Apr-20 08:30N 47°32' W 122°25'4 8.2
2017-Apr-20 08:01N 47°28' W 122°24'4 8.0
2017-Apr-20 07:30N 47°25' W 122°22'3 6.5
2017-Apr-20 07:00N 47°22' W 122°23'4 7.8
2017-Apr-20 06:30N 47°19' W 122°27'3 6.9
2017-Apr-20 06:00N 47°15' W 122°26'0 0.0
2017-Apr-20 05:30N 47°15' W 122°26'0 0.0
2017-Apr-20 05:00N 47°15' W 122°26'0 0.0
2017-Apr-20 04:30N 47°15' W 122°26'0 0.0
2017-Apr-20 04:00N 47°15' W 122°26'0 0.0
2017-Apr-20 03:30N 47°15' W 122°26'0 0.0
2017-Apr-20 03:00N 47°15' W 122°26'0 0.0
2017-Apr-20 02:29N 47°15' W 122°26'0 0.0
2017-Apr-20 02:00N 47°15' W 122°26'0 0.0
2017-Apr-20 01:30N 47°15' W 122°26'0 0.0
2017-Apr-20 01:00N 47°15' W 122°26'0 0.0
2017-Apr-20 00:24N 47°15' W 122°26'0 0.0
2017-Apr-20 00:00N 47°15' W 122°26'2 2.3
2017-Apr-19 23:17N 47°17' W 122°24'1 2.1
2017-Apr-19 23:00N 47°17' W 122°25'1 2.1
2017-Apr-19 22:31N 47°16' W 122°26'1 1.8
2017-Apr-19 22:00N 47°15' W 122°26'0 0.0
2017-Apr-19 21:30N 47°15' W 122°26'0 0.0
2017-Apr-19 20:17N 47°15' W 122°26'0 0.0
2017-Apr-19 20:00N 47°15' W 122°26'0 0.0
2017-Apr-19 19:30N 47°15' W 122°26'0 0.0
2017-Apr-19 19:00N 47°15' W 122°26'0 0.0
2017-Apr-19 18:30N 47°15' W 122°26'0 0.0
2017-Apr-19 18:00N 47°15' W 122°26'0 0.0
2017-Apr-19 17:30N 47°15' W 122°26'0 0.0
2017-Apr-19 17:00N 47°15' W 122°26'0 0.0
2017-Apr-19 16:29N 47°15' W 122°26'0 0.0
2017-Apr-19 16:00N 47°15' W 122°26'0 0.0
2017-Apr-19 15:30N 47°15' W 122°26'0 0.0
2017-Apr-19 15:00N 47°15' W 122°26'0 0.0
2017-Apr-19 14:30N 47°15' W 122°26'1 1.9
2017-Apr-19 14:00N 47°16' W 122°26'1 1.5
2017-Apr-19 13:29N 47°16' W 122°25'1 1.3
2017-Apr-19 13:00N 47°17' W 122°25'1 1.7
2017-Apr-19 12:30N 47°18' W 122°26'0 0.4
2017-Apr-19 12:00N 47°17' W 122°26'2 3.1
2017-Apr-19 11:24N 47°16' W 122°24'0 0.0
2017-Apr-19 11:00N 47°16' W 122°24'0 0.0
2017-Apr-19 10:29N 47°16' W 122°24'0 0.1
2017-Apr-19 10:00N 47°16' W 122°24'1 1.7
2017-Apr-19 09:30N 47°17' W 122°25'2 3.2
2017-Apr-19 09:00N 47°15' W 122°26'0 0.0
2017-Apr-19 08:30N 47°15' W 122°26'0 0.0
2017-Apr-19 08:00N 47°15' W 122°26'0 0.0
2017-Apr-19 07:30N 47°15' W 122°26'0 0.0
2017-Apr-19 07:00N 47°15' W 122°26'0 0.0
2017-Apr-19 06:30N 47°15' W 122°26'0 0.0
2017-Apr-19 06:00N 47°15' W 122°26'0 0.0
2017-Apr-19 05:30N 47°15' W 122°26'0 0.0
2017-Apr-19 05:00N 47°15' W 122°26'0 0.0
2017-Apr-19 04:30N 47°15' W 122°26'0 0.0
2017-Apr-19 04:00N 47°15' W 122°26'2 3.0
2017-Apr-19 03:28N 47°17' W 122°25'0 0.2
2017-Apr-19 03:01N 47°17' W 122°25'3 5.3
2017-Apr-19 02:31N 47°19' W 122°27'4 8.9
2017-Apr-19 02:01N 47°22' W 122°23'4 8.1
2017-Apr-19 01:31N 47°26' W 122°24'5 9.5
2017-Apr-19 01:01N 47°31' W 122°26'4 8.1
2017-Apr-19 00:30N 47°35' W 122°26'3 6.7
2017-Apr-19 00:00N 47°35' W 122°21'0 0.0
2017-Apr-18 23:30N 47°35' W 122°21'0 0.0
2017-Apr-18 23:00N 47°35' W 122°21'0 0.0
2017-Apr-18 22:30N 47°35' W 122°21'0 0.0
2017-Apr-18 22:00N 47°35' W 122°21'0 0.0
2017-Apr-18 21:30N 47°35' W 122°21'0 0.0
2017-Apr-18 21:00N 47°35' W 122°21'0 0.0
2017-Apr-18 20:30N 47°35' W 122°21'0 0.0
2017-Apr-18 20:00N 47°35' W 122°21'0 0.0
2017-Apr-18 19:30N 47°35' W 122°21'0 0.0
2017-Apr-18 19:00N 47°35' W 122°21'0 0.0
2017-Apr-18 18:30N 47°35' W 122°21'0 0.0
2017-Apr-18 18:00N 47°35' W 122°21'0 0.5
2017-Apr-18 17:30N 47°35' W 122°21'1 2.6
2017-Apr-18 17:00N 47°36' W 122°21'3 5.0
2017-Apr-18 16:30N 47°35' W 122°25'4 7.3
2017-Apr-18 16:00N 47°32' W 122°25'510.7
2017-Apr-18 15:31N 47°27' W 122°23'5 9.5
2017-Apr-18 15:01N 47°22' W 122°22'5 9.9
2017-Apr-18 14:31N 47°18' W 122°27'1 1.1
2017-Apr-18 13:30N 47°17' W 122°26'0 0.8
2017-Apr-18 13:00N 47°17' W 122°26'2 3.4
2017-Apr-18 12:30N 47°15' W 122°26'0 0.0
2017-Apr-18 12:00N 47°15' W 122°26'0 0.0
2017-Apr-18 11:30N 47°15' W 122°26'0 0.0
2017-Apr-18 11:00N 47°15' W 122°26'0 0.0
2017-Apr-18 10:30N 47°15' W 122°26'0 0.0
2017-Apr-18 10:00N 47°15' W 122°26'0 0.0
2017-Apr-18 09:30N 47°15' W 122°26'0 0.0
2017-Apr-18 09:00N 47°15' W 122°26'0 0.0
2017-Apr-18 08:30N 47°15' W 122°26'0 0.0
2017-Apr-18 08:00N 47°15' W 122°26'0 0.0
2017-Apr-18 07:30N 47°15' W 122°26'0 0.0
2017-Apr-18 07:00N 47°15' W 122°26'0 0.0
2017-Apr-18 06:30N 47°15' W 122°26'0 0.0
2017-Apr-18 06:00N 47°15' W 122°26'0 0.0
2017-Apr-18 05:25N 47°15' W 122°26'0 0.0
2017-Apr-18 05:00N 47°15' W 122°26'0 0.0
2017-Apr-18 04:30N 47°15' W 122°26'0 0.0
2017-Apr-18 04:00N 47°15' W 122°26'0 0.0
2017-Apr-18 03:30N 47°15' W 122°26'0 0.0
2017-Apr-18 03:00N 47°15' W 122°26'0 0.0
2017-Apr-18 02:29N 47°15' W 122°26'0 0.0
2017-Apr-18 02:00N 47°15' W 122°26'1 2.2
2017-Apr-18 01:30N 47°16' W 122°25'0 0.1
2017-Apr-18 01:00N 47°16' W 122°25'0 0.2
2017-Apr-18 00:31N 47°16' W 122°25'4 8.3
2017-Apr-18 00:01N 47°20' W 122°27'5 9.3
2017-Apr-17 23:30N 47°24' W 122°22'5 9.0
2017-Apr-17 23:00N 47°28' W 122°24'4 8.8
2017-Apr-17 22:30N 47°33' W 122°25'4 7.1
2017-Apr-17 22:01N 47°36' W 122°23'2 3.1
2017-Apr-17 21:30N 47°35' W 122°21'0 0.0
2017-Apr-17 21:00N 47°35' W 122°21'1 1.1
2017-Apr-17 20:30N 47°35' W 122°21'0 1.0
2017-Apr-17 20:00N 47°35' W 122°21'1 2.2
2017-Apr-17 19:30N 47°36' W 122°22'0 0.9
2017-Apr-17 19:00N 47°36' W 122°23'1 1.6
2017-Apr-17 18:30N 47°36' W 122°24'3 6.9
2017-Apr-17 18:01N 47°32' W 122°25'4 8.2
2017-Apr-17 17:30N 47°28' W 122°24'4 8.4
2017-Apr-17 17:00N 47°24' W 122°22'4 7.1
2017-Apr-17 16:31N 47°21' W 122°24'  

Dump ship's entire track history